sensor_id;sensor_type;location;lat;lon;timestamp;P1;durP1;ratioP1;P2;durP2;ratioP2
44272;SDS011;29964;17.182;-96.766;2023-07-13T00:00:46;4.15;;;1.50;;
44272;SDS011;29964;17.182;-96.766;2023-07-13T00:03:13;3.35;;;1.95;;
44272;SDS011;29964;17.182;-96.766;2023-07-13T00:05:40;4.00;;;1.42;;
44272;SDS011;29964;17.182;-96.766;2023-07-13T00:08:07;2.15;;;1.08;;
44272;SDS011;29964;17.182;-96.766;2023-07-13T00:10:38;6.78;;;2.28;;
44272;SDS011;29964;17.182;-96.766;2023-07-13T00:13:05;3.50;;;1.77;;
44272;SDS011;29964;17.182;-96.766;2023-07-13T00:15:31;11.90;;;1.77;;
44272;SDS011;29964;17.182;-96.766;2023-07-13T00:17:58;6.13;;;2.13;;
44272;SDS011;29964;17.182;-96.766;2023-07-13T00:20:26;3.92;;;1.35;;
44272;SDS011;29964;17.182;-96.766;2023-07-13T00:22:53;4.55;;;1.83;;
44272;SDS011;29964;17.182;-96.766;2023-07-13T00:25:20;6.25;;;2.78;;
44272;SDS011;29964;17.182;-96.766;2023-07-13T00:27:51;7.40;;;2.17;;
44272;SDS011;29964;17.182;-96.766;2023-07-13T00:30:18;3.95;;;1.38;;
44272;SDS011;29964;17.182;-96.766;2023-07-13T00:32:44;4.47;;;1.08;;
44272;SDS011;29964;17.182;-96.766;2023-07-13T00:35:12;5.03;;;1.60;;
44272;SDS011;29964;17.182;-96.766;2023-07-13T00:37:39;8.32;;;1.80;;
44272;SDS011;29964;17.182;-96.766;2023-07-13T00:40:06;6.15;;;1.73;;
44272;SDS011;29964;17.182;-96.766;2023-07-13T00:42:34;3.08;;;1.10;;
44272;SDS011;29964;17.182;-96.766;2023-07-13T00:45:04;2.78;;;1.35;;
44272;SDS011;29964;17.182;-96.766;2023-07-13T00:47:31;4.03;;;2.10;;
44272;SDS011;29964;17.182;-96.766;2023-07-13T00:49:58;6.30;;;1.88;;
44272;SDS011;29964;17.182;-96.766;2023-07-13T00:52:25;5.10;;;1.60;;
44272;SDS011;29964;17.182;-96.766;2023-07-13T00:54:53;22.95;;;2.35;;
44272;SDS011;29964;17.182;-96.766;2023-07-13T00:57:20;3.00;;;1.52;;
44272;SDS011;29964;17.182;-96.766;2023-07-13T00:59:49;3.30;;;1.30;;
44272;SDS011;29964;17.182;-96.766;2023-07-13T01:02:17;2.20;;;1.17;;
44272;SDS011;29964;17.182;-96.766;2023-07-13T01:04:44;2.15;;;1.25;;
44272;SDS011;29964;17.182;-96.766;2023-07-13T01:07:11;5.22;;;1.85;;
44272;SDS011;29964;17.182;-96.766;2023-07-13T01:09:39;6.60;;;1.00;;
44272;SDS011;29964;17.182;-96.766;2023-07-13T01:12:06;5.68;;;1.52;;
44272;SDS011;29964;17.182;-96.766;2023-07-13T01:14:33;5.57;;;1.63;;
44272;SDS011;29964;17.182;-96.766;2023-07-13T01:17:00;5.77;;;1.33;;
44272;SDS011;29964;17.182;-96.766;2023-07-13T01:19:37;1.93;;;1.00;;
44272;SDS011;29964;17.182;-96.766;2023-07-13T01:22:09;2.67;;;1.03;;
44272;SDS011;29964;17.182;-96.766;2023-07-13T01:24:37;1.97;;;1.00;;
44272;SDS011;29964;17.182;-96.766;2023-07-13T01:27:04;3.70;;;0.97;;
44272;SDS011;29964;17.182;-96.766;2023-07-13T01:29:32;3.40;;;0.93;;
44272;SDS011;29964;17.182;-96.766;2023-07-13T01:31:59;7.07;;;1.20;;
44272;SDS011;29964;17.182;-96.766;2023-07-13T01:34:27;2.30;;;1.10;;
44272;SDS011;29964;17.182;-96.766;2023-07-13T01:36:54;3.17;;;0.87;;
44272;SDS011;29964;17.182;-96.766;2023-07-13T01:39:22;2.03;;;0.83;;
44272;SDS011;29964;17.182;-96.766;2023-07-13T01:41:48;1.07;;;0.57;;
44272;SDS011;29964;17.182;-96.766;2023-07-13T01:44:15;1.43;;;0.63;;
44272;SDS011;29964;17.182;-96.766;2023-07-13T01:46:42;12.83;;;1.60;;
44272;SDS011;29964;17.182;-96.766;2023-07-13T01:49:09;5.53;;;1.53;;
44272;SDS011;29964;17.182;-96.766;2023-07-13T01:51:36;3.00;;;1.23;;
44272;SDS011;29964;17.182;-96.766;2023-07-13T01:54:02;5.80;;;1.67;;
44272;SDS011;29964;17.182;-96.766;2023-07-13T01:56:30;2.67;;;1.53;;
44272;SDS011;29964;17.182;-96.766;2023-07-13T01:58:56;7.30;;;1.83;;
44272;SDS011;29964;17.182;-96.766;2023-07-13T02:01:23;10.03;;;2.37;;
44272;SDS011;29964;17.182;-96.766;2023-07-13T02:03:50;6.93;;;2.37;;
44272;SDS011;29964;17.182;-96.766;2023-07-13T02:06:17;17.30;;;2.70;;
44272;SDS011;29964;17.182;-96.766;2023-07-13T02:08:44;8.03;;;2.67;;
44272;SDS011;29964;17.182;-96.766;2023-07-13T02:11:10;8.73;;;2.03;;
44272;SDS011;29964;17.182;-96.766;2023-07-13T02:13:38;11.53;;;2.40;;
44272;SDS011;29964;17.182;-96.766;2023-07-13T02:16:05;33.20;;;2.77;;
44272;SDS011;29964;17.182;-96.766;2023-07-13T02:18:32;16.33;;;2.00;;
44272;SDS011;29964;17.182;-96.766;2023-07-13T02:20:58;2.87;;;1.00;;
44272;SDS011;29964;17.182;-96.766;2023-07-13T02:23:25;2.97;;;1.33;;
44272;SDS011;29964;17.182;-96.766;2023-07-13T02:25:55;3.77;;;1.40;;
44272;SDS011;29964;17.182;-96.766;2023-07-13T02:28:22;7.20;;;1.87;;
44272;SDS011;29964;17.182;-96.766;2023-07-13T02:30:49;4.00;;;1.60;;
44272;SDS011;29964;17.182;-96.766;2023-07-13T02:33:16;3.07;;;1.37;;
44272;SDS011;29964;17.182;-96.766;2023-07-13T02:35:43;3.07;;;1.53;;
44272;SDS011;29964;17.182;-96.766;2023-07-13T02:38:10;13.00;;;2.30;;
44272;SDS011;29964;17.182;-96.766;2023-07-13T02:40:38;3.77;;;1.70;;
44272;SDS011;29964;17.182;-96.766;2023-07-13T02:43:05;6.20;;;1.80;;
44272;SDS011;29964;17.182;-96.766;2023-07-13T02:45:32;3.23;;;1.47;;
44272;SDS011;29964;17.182;-96.766;2023-07-13T02:47:59;7.37;;;1.37;;
44272;SDS011;29964;17.182;-96.766;2023-07-13T02:50:26;5.50;;;1.87;;
44272;SDS011;29964;17.182;-96.766;2023-07-13T02:52:53;8.90;;;1.70;;
44272;SDS011;29964;17.182;-96.766;2023-07-13T02:55:19;8.50;;;1.70;;
44272;SDS011;29964;17.182;-96.766;2023-07-13T02:57:46;17.63;;;2.27;;
44272;SDS011;29964;17.182;-96.766;2023-07-13T03:00:13;18.20;;;1.43;;
44272;SDS011;29964;17.182;-96.766;2023-07-13T03:02:41;20.60;;;2.20;;
44272;SDS011;29964;17.182;-96.766;2023-07-13T03:05:09;16.90;;;1.80;;
44272;SDS011;29964;17.182;-96.766;2023-07-13T03:07:38;7.83;;;2.17;;
44272;SDS011;29964;17.182;-96.766;2023-07-13T03:10:05;13.90;;;2.63;;
44272;SDS011;29964;17.182;-96.766;2023-07-13T03:12:33;10.83;;;2.53;;
44272;SDS011;29964;17.182;-96.766;2023-07-13T03:14:59;6.63;;;1.53;;
44272;SDS011;29964;17.182;-96.766;2023-07-13T03:17:30;20.70;;;3.43;;
44272;SDS011;29964;17.182;-96.766;2023-07-13T03:19:56;9.00;;;2.23;;
44272;SDS011;29964;17.182;-96.766;2023-07-13T03:22:23;11.83;;;2.10;;
44272;SDS011;29964;17.182;-96.766;2023-07-13T03:24:50;2.83;;;1.17;;
44272;SDS011;29964;17.182;-96.766;2023-07-13T03:27:17;35.97;;;2.23;;
44272;SDS011;29964;17.182;-96.766;2023-07-13T03:29:44;4.57;;;2.03;;
44272;SDS011;29964;17.182;-96.766;2023-07-13T03:32:11;25.37;;;2.03;;
44272;SDS011;29964;17.182;-96.766;2023-07-13T03:34:38;11.40;;;2.30;;
44272;SDS011;29964;17.182;-96.766;2023-07-13T03:37:04;4.90;;;2.10;;
44272;SDS011;29964;17.182;-96.766;2023-07-13T03:39:31;8.73;;;2.13;;
44272;SDS011;29964;17.182;-96.766;2023-07-13T03:41:58;25.17;;;2.43;;
44272;SDS011;29964;17.182;-96.766;2023-07-13T03:44:25;5.17;;;1.50;;
44272;SDS011;29964;17.182;-96.766;2023-07-13T03:46:52;25.07;;;3.43;;
44272;SDS011;29964;17.182;-96.766;2023-07-13T03:49:19;10.40;;;2.77;;
44272;SDS011;29964;17.182;-96.766;2023-07-13T03:51:45;25.30;;;2.97;;
44272;SDS011;29964;17.182;-96.766;2023-07-13T03:54:12;6.83;;;2.40;;
44272;SDS011;29964;17.182;-96.766;2023-07-13T03:56:39;5.27;;;1.30;;
44272;SDS011;29964;17.182;-96.766;2023-07-13T03:59:06;7.30;;;2.37;;
44272;SDS011;29964;17.182;-96.766;2023-07-13T04:01:33;8.87;;;1.63;;
44272;SDS011;29964;17.182;-96.766;2023-07-13T04:03:59;6.93;;;2.00;;
44272;SDS011;29964;17.182;-96.766;2023-07-13T04:06:27;6.37;;;2.00;;
44272;SDS011;29964;17.182;-96.766;2023-07-13T04:08:55;7.13;;;1.53;;
44272;SDS011;29964;17.182;-96.766;2023-07-13T04:11:23;7.27;;;2.23;;
44272;SDS011;29964;17.182;-96.766;2023-07-13T04:13:50;6.33;;;2.00;;
44272;SDS011;29964;17.182;-96.766;2023-07-13T04:16:19;9.70;;;2.83;;
44272;SDS011;29964;17.182;-96.766;2023-07-13T04:18:46;3.73;;;1.50;;
44272;SDS011;29964;17.182;-96.766;2023-07-13T04:21:14;5.57;;;2.23;;
44272;SDS011;29964;17.182;-96.766;2023-07-13T04:23:41;15.07;;;1.57;;
44272;SDS011;29964;17.182;-96.766;2023-07-13T04:26:08;5.93;;;1.20;;
44272;SDS011;29964;17.182;-96.766;2023-07-13T04:28:34;9.43;;;2.63;;
44272;SDS011;29964;17.182;-96.766;2023-07-13T04:31:01;7.57;;;1.47;;
44272;SDS011;29964;17.182;-96.766;2023-07-13T04:33:29;9.43;;;2.70;;
44272;SDS011;29964;17.182;-96.766;2023-07-13T04:35:56;14.33;;;2.43;;
44272;SDS011;29964;17.182;-96.766;2023-07-13T04:38:24;3.77;;;1.60;;
44272;SDS011;29964;17.182;-96.766;2023-07-13T04:40:54;10.57;;;2.30;;
44272;SDS011;29964;17.182;-96.766;2023-07-13T04:43:21;3.70;;;1.97;;
44272;SDS011;29964;17.182;-96.766;2023-07-13T04:45:47;16.93;;;3.03;;
44272;SDS011;29964;17.182;-96.766;2023-07-13T04:48:14;13.90;;;2.37;;
44272;SDS011;29964;17.182;-96.766;2023-07-13T04:50:41;8.57;;;2.13;;
44272;SDS011;29964;17.182;-96.766;2023-07-13T04:53:09;3.20;;;1.93;;
44272;SDS011;29964;17.182;-96.766;2023-07-13T04:55:36;2.57;;;1.27;;
44272;SDS011;29964;17.182;-96.766;2023-07-13T04:58:03;3.43;;;1.70;;
44272;SDS011;29964;17.182;-96.766;2023-07-13T05:00:30;3.70;;;1.93;;
44272;SDS011;29964;17.182;-96.766;2023-07-13T05:02:57;15.90;;;1.93;;
44272;SDS011;29964;17.182;-96.766;2023-07-13T05:05:25;6.10;;;2.07;;
44272;SDS011;29964;17.182;-96.766;2023-07-13T05:07:52;4.30;;;2.00;;
44272;SDS011;29964;17.182;-96.766;2023-07-13T05:10:19;5.00;;;1.93;;
44272;SDS011;29964;17.182;-96.766;2023-07-13T05:12:46;2.57;;;1.23;;
44272;SDS011;29964;17.182;-96.766;2023-07-13T05:15:13;10.27;;;2.40;;
44272;SDS011;29964;17.182;-96.766;2023-07-13T05:17:40;3.20;;;1.70;;
44272;SDS011;29964;17.182;-96.766;2023-07-13T05:20:08;4.10;;;1.83;;
44272;SDS011;29964;17.182;-96.766;2023-07-13T05:22:35;6.37;;;2.87;;
44272;SDS011;29964;17.182;-96.766;2023-07-13T05:25:05;11.07;;;2.17;;
44272;SDS011;29964;17.182;-96.766;2023-07-13T05:27:33;9.07;;;1.77;;
44272;SDS011;29964;17.182;-96.766;2023-07-13T05:30:00;28.43;;;3.20;;
44272;SDS011;29964;17.182;-96.766;2023-07-13T05:32:27;8.33;;;2.27;;
44272;SDS011;29964;17.182;-96.766;2023-07-13T05:34:53;9.00;;;2.07;;
44272;SDS011;29964;17.182;-96.766;2023-07-13T05:37:20;4.90;;;1.70;;
44272;SDS011;29964;17.182;-96.766;2023-07-13T05:39:47;10.80;;;2.60;;
44272;SDS011;29964;17.182;-96.766;2023-07-13T05:42:14;7.30;;;2.00;;
44272;SDS011;29964;17.182;-96.766;2023-07-13T05:44:40;8.40;;;2.03;;
44272;SDS011;29964;17.182;-96.766;2023-07-13T05:47:07;6.37;;;2.40;;
44272;SDS011;29964;17.182;-96.766;2023-07-13T05:49:34;36.03;;;2.73;;
44272;SDS011;29964;17.182;-96.766;2023-07-13T05:52:01;20.40;;;2.60;;
44272;SDS011;29964;17.182;-96.766;2023-07-13T05:54:27;6.63;;;2.17;;
44272;SDS011;29964;17.182;-96.766;2023-07-13T05:56:55;6.23;;;1.93;;
44272;SDS011;29964;17.182;-96.766;2023-07-13T05:59:21;3.23;;;1.73;;
44272;SDS011;29964;17.182;-96.766;2023-07-13T06:01:48;10.80;;;2.87;;
44272;SDS011;29964;17.182;-96.766;2023-07-13T06:04:17;4.37;;;2.17;;
44272;SDS011;29964;17.182;-96.766;2023-07-13T06:06:45;6.93;;;2.67;;
44272;SDS011;29964;17.182;-96.766;2023-07-13T06:09:12;9.33;;;2.30;;
44272;SDS011;29964;17.182;-96.766;2023-07-13T06:11:38;7.77;;;1.37;;
44272;SDS011;29964;17.182;-96.766;2023-07-13T06:14:05;9.70;;;2.57;;
44272;SDS011;29964;17.182;-96.766;2023-07-13T06:16:32;5.10;;;2.43;;
44272;SDS011;29964;17.182;-96.766;2023-07-13T06:18:59;6.50;;;2.53;;
44272;SDS011;29964;17.182;-96.766;2023-07-13T06:21:26;6.27;;;2.40;;
44272;SDS011;29964;17.182;-96.766;2023-07-13T06:23:52;5.17;;;2.27;;
44272;SDS011;29964;17.182;-96.766;2023-07-13T06:26:20;5.27;;;2.27;;
44272;SDS011;29964;17.182;-96.766;2023-07-13T06:28:47;3.30;;;1.63;;
44272;SDS011;29964;17.182;-96.766;2023-07-13T06:31:14;4.80;;;1.57;;
44272;SDS011;29964;17.182;-96.766;2023-07-13T06:33:41;3.00;;;1.87;;
44272;SDS011;29964;17.182;-96.766;2023-07-13T06:36:08;5.73;;;2.10;;
44272;SDS011;29964;17.182;-96.766;2023-07-13T06:38:35;11.77;;;2.30;;
44272;SDS011;29964;17.182;-96.766;2023-07-13T06:41:02;7.13;;;1.80;;
44272;SDS011;29964;17.182;-96.766;2023-07-13T06:43:28;8.43;;;2.57;;
44272;SDS011;29964;17.182;-96.766;2023-07-13T06:45:57;6.73;;;2.53;;
44272;SDS011;29964;17.182;-96.766;2023-07-13T06:48:24;5.17;;;2.10;;
44272;SDS011;29964;17.182;-96.766;2023-07-13T06:50:51;11.83;;;2.27;;
44272;SDS011;29964;17.182;-96.766;2023-07-13T06:53:19;6.20;;;1.60;;
44272;SDS011;29964;17.182;-96.766;2023-07-13T06:55:46;2.40;;;1.47;;
44272;SDS011;29964;17.182;-96.766;2023-07-13T06:58:14;5.50;;;1.87;;
44272;SDS011;29964;17.182;-96.766;2023-07-13T07:00:41;5.07;;;1.77;;
44272;SDS011;29964;17.182;-96.766;2023-07-13T07:03:08;5.37;;;1.97;;
44272;SDS011;29964;17.182;-96.766;2023-07-13T07:05:35;2.53;;;1.47;;
44272;SDS011;29964;17.182;-96.766;2023-07-13T07:08:02;3.43;;;1.47;;
44272;SDS011;29964;17.182;-96.766;2023-07-13T07:10:29;3.20;;;1.43;;
44272;SDS011;29964;17.182;-96.766;2023-07-13T07:12:57;4.63;;;1.73;;
44272;SDS011;29964;17.182;-96.766;2023-07-13T07:15:24;5.23;;;2.13;;
44272;SDS011;29964;17.182;-96.766;2023-07-13T07:17:50;1.97;;;1.30;;
44272;SDS011;29964;17.182;-96.766;2023-07-13T07:20:17;5.67;;;2.07;;
44272;SDS011;29964;17.182;-96.766;2023-07-13T07:22:45;3.07;;;1.30;;
44272;SDS011;29964;17.182;-96.766;2023-07-13T07:25:12;32.40;;;1.97;;
44272;SDS011;29964;17.182;-96.766;2023-07-13T07:27:39;6.83;;;2.43;;
44272;SDS011;29964;17.182;-96.766;2023-07-13T07:30:06;2.03;;;1.20;;
44272;SDS011;29964;17.182;-96.766;2023-07-13T07:32:33;4.17;;;1.80;;
44272;SDS011;29964;17.182;-96.766;2023-07-13T07:35:00;4.87;;;1.53;;
44272;SDS011;29964;17.182;-96.766;2023-07-13T07:37:26;6.90;;;1.77;;
44272;SDS011;29964;17.182;-96.766;2023-07-13T07:39:53;3.30;;;1.63;;
44272;SDS011;29964;17.182;-96.766;2023-07-13T07:42:20;2.27;;;1.40;;
44272;SDS011;29964;17.182;-96.766;2023-07-13T07:44:46;5.03;;;2.20;;
44272;SDS011;29964;17.182;-96.766;2023-07-13T07:47:13;3.30;;;1.87;;
44272;SDS011;29964;17.182;-96.766;2023-07-13T07:49:40;10.70;;;2.13;;
44272;SDS011;29964;17.182;-96.766;2023-07-13T07:52:07;3.33;;;1.33;;
44272;SDS011;29964;17.182;-96.766;2023-07-13T07:54:34;2.43;;;1.50;;
44272;SDS011;29964;17.182;-96.766;2023-07-13T07:57:01;3.63;;;1.87;;
44272;SDS011;29964;17.182;-96.766;2023-07-13T07:59:27;5.70;;;2.30;;
44272;SDS011;29964;17.182;-96.766;2023-07-13T08:01:54;4.77;;;1.77;;
44272;SDS011;29964;17.182;-96.766;2023-07-13T08:04:21;2.43;;;1.27;;
44272;SDS011;29964;17.182;-96.766;2023-07-13T08:06:48;3.93;;;1.60;;
44272;SDS011;29964;17.182;-96.766;2023-07-13T08:09:14;26.57;;;2.10;;
44272;SDS011;29964;17.182;-96.766;2023-07-13T08:11:41;4.63;;;1.77;;
44272;SDS011;29964;17.182;-96.766;2023-07-13T08:14:08;1.90;;;1.27;;
44272;SDS011;29964;17.182;-96.766;2023-07-13T08:16:35;2.83;;;1.40;;
44272;SDS011;29964;17.182;-96.766;2023-07-13T08:19:02;3.37;;;1.40;;
44272;SDS011;29964;17.182;-96.766;2023-07-13T08:21:29;2.27;;;1.20;;
44272;SDS011;29964;17.182;-96.766;2023-07-13T08:23:57;3.00;;;1.27;;
44272;SDS011;29964;17.182;-96.766;2023-07-13T08:26:23;3.00;;;1.53;;
44272;SDS011;29964;17.182;-96.766;2023-07-13T08:28:50;3.97;;;1.43;;
44272;SDS011;29964;17.182;-96.766;2023-07-13T08:31:17;3.43;;;1.37;;
44272;SDS011;29964;17.182;-96.766;2023-07-13T08:33:44;4.23;;;1.37;;
44272;SDS011;29964;17.182;-96.766;2023-07-13T08:36:10;4.00;;;1.60;;
44272;SDS011;29964;17.182;-96.766;2023-07-13T08:38:37;4.33;;;1.80;;
44272;SDS011;29964;17.182;-96.766;2023-07-13T08:41:17;3.30;;;1.57;;
44272;SDS011;29964;17.182;-96.766;2023-07-13T08:43:47;2.93;;;1.67;;
44272;SDS011;29964;17.182;-96.766;2023-07-13T08:46:47;16.57;;;1.73;;
44272;SDS011;29964;17.182;-96.766;2023-07-13T08:49:17;2.00;;;1.27;;
44272;SDS011;29964;17.182;-96.766;2023-07-13T08:56:47;3.80;;;1.93;;
44272;SDS011;29964;17.182;-96.766;2023-07-13T08:59:16;1.47;;;0.83;;
44272;SDS011;29964;17.182;-96.766;2023-07-13T09:04:18;1.80;;;1.27;;
44272;SDS011;29964;17.182;-96.766;2023-07-13T09:12:23;2.20;;;0.70;;
44272;SDS011;29964;17.182;-96.766;2023-07-13T09:14:53;4.00;;;1.47;;
44272;SDS011;29964;17.182;-96.766;2023-07-13T09:17:23;2.40;;;1.17;;
44272;SDS011;29964;17.182;-96.766;2023-07-13T09:20:14;7.50;;;2.20;;
44272;SDS011;29964;17.182;-96.766;2023-07-13T09:22:43;2.53;;;1.23;;
44272;SDS011;29964;17.182;-96.766;2023-07-13T09:25:24;1.40;;;1.03;;
44272;SDS011;29964;17.182;-96.766;2023-07-13T09:27:53;1.10;;;0.77;;
44272;SDS011;29964;17.182;-96.766;2023-07-13T09:30:43;1.20;;;0.77;;
44272;SDS011;29964;17.182;-96.766;2023-07-13T09:33:11;2.17;;;1.27;;
44272;SDS011;29964;17.182;-96.766;2023-07-13T09:35:39;4.53;;;1.53;;
44272;SDS011;29964;17.182;-96.766;2023-07-13T09:38:13;1.43;;;0.77;;
44272;SDS011;29964;17.182;-96.766;2023-07-13T09:40:44;3.35;;;1.33;;
44272;SDS011;29964;17.182;-96.766;2023-07-13T09:43:14;9.17;;;1.93;;
44272;SDS011;29964;17.182;-96.766;2023-07-13T09:45:41;1.10;;;0.90;;
44272;SDS011;29964;17.182;-96.766;2023-07-13T09:48:12;3.47;;;1.40;;
44272;SDS011;29964;17.182;-96.766;2023-07-13T09:50:40;5.10;;;1.77;;
44272;SDS011;29964;17.182;-96.766;2023-07-13T09:53:14;3.63;;;1.90;;
44272;SDS011;29964;17.182;-96.766;2023-07-13T09:55:42;4.00;;;1.30;;
44272;SDS011;29964;17.182;-96.766;2023-07-13T10:00:36;6.10;;;1.10;;
44272;SDS011;29964;17.182;-96.766;2023-07-13T10:03:19;1.90;;;1.30;;
44272;SDS011;29964;17.182;-96.766;2023-07-13T10:05:47;1.70;;;1.03;;
44272;SDS011;29964;17.182;-96.766;2023-07-13T10:08:25;2.77;;;1.47;;
44272;SDS011;29964;17.182;-96.766;2023-07-13T10:11:00;3.77;;;1.53;;
44272;SDS011;29964;17.182;-96.766;2023-07-13T10:13:32;3.63;;;1.17;;
44272;SDS011;29964;17.182;-96.766;2023-07-13T10:16:02;3.80;;;1.30;;
44272;SDS011;29964;17.182;-96.766;2023-07-13T10:18:31;26.30;;;2.13;;
44272;SDS011;29964;17.182;-96.766;2023-07-13T10:24:00;2.80;;;1.57;;
44272;SDS011;29964;17.182;-96.766;2023-07-13T10:26:31;2.30;;;1.47;;
44272;SDS011;29964;17.182;-96.766;2023-07-13T10:29:02;34.53;;;1.63;;
44272;SDS011;29964;17.182;-96.766;2023-07-13T10:31:32;3.43;;;1.30;;
44272;SDS011;29964;17.182;-96.766;2023-07-13T10:34:00;1.37;;;0.80;;
44272;SDS011;29964;17.182;-96.766;2023-07-13T10:38:54;1.93;;;1.13;;
44272;SDS011;29964;17.182;-96.766;2023-07-13T10:41:22;6.93;;;2.20;;
44272;SDS011;29964;17.182;-96.766;2023-07-13T10:43:51;7.40;;;1.60;;
44272;SDS011;29964;17.182;-96.766;2023-07-13T10:46:19;3.43;;;1.60;;
44272;SDS011;29964;17.182;-96.766;2023-07-13T10:48:48;2.03;;;1.20;;
44272;SDS011;29964;17.182;-96.766;2023-07-13T10:51:17;6.93;;;1.93;;
44272;SDS011;29964;17.182;-96.766;2023-07-13T10:53:46;3.17;;;2.00;;
44272;SDS011;29964;17.182;-96.766;2023-07-13T10:56:24;2.73;;;1.80;;
44272;SDS011;29964;17.182;-96.766;2023-07-13T11:01:40;9.87;;;3.17;;
44272;SDS011;29964;17.182;-96.766;2023-07-13T11:04:08;5.27;;;3.33;;
44272;SDS011;29964;17.182;-96.766;2023-07-13T11:06:39;3.17;;;2.17;;
44272;SDS011;29964;17.182;-96.766;2023-07-13T11:11:49;5.00;;;1.53;;
44272;SDS011;29964;17.182;-96.766;2023-07-13T11:14:29;4.70;;;1.87;;
44272;SDS011;29964;17.182;-96.766;2023-07-13T11:16:56;5.63;;;2.07;;
44272;SDS011;29964;17.182;-96.766;2023-07-13T11:19:27;5.57;;;1.80;;
44272;SDS011;29964;17.182;-96.766;2023-07-13T11:24:47;4.20;;;2.10;;
44272;SDS011;29964;17.182;-96.766;2023-07-13T11:30:09;7.43;;;3.07;;
44272;SDS011;29964;17.182;-96.766;2023-07-13T11:32:35;1.50;;;1.23;;
44272;SDS011;29964;17.182;-96.766;2023-07-13T11:35:02;3.57;;;2.10;;
44272;SDS011;29964;17.182;-96.766;2023-07-13T11:37:29;2.70;;;2.13;;
44272;SDS011;29964;17.182;-96.766;2023-07-13T11:39:57;8.53;;;2.67;;
44272;SDS011;29964;17.182;-96.766;2023-07-13T11:42:24;2.57;;;1.60;;
44272;SDS011;29964;17.182;-96.766;2023-07-13T11:44:52;17.47;;;2.30;;
44272;SDS011;29964;17.182;-96.766;2023-07-13T11:47:22;8.70;;;3.47;;
44272;SDS011;29964;17.182;-96.766;2023-07-13T11:49:53;3.57;;;2.43;;
44272;SDS011;29964;17.182;-96.766;2023-07-13T11:52:32;7.23;;;2.93;;
44272;SDS011;29964;17.182;-96.766;2023-07-13T11:55:00;5.80;;;2.70;;
44272;SDS011;29964;17.182;-96.766;2023-07-13T11:59:56;3.60;;;1.90;;
44272;SDS011;29964;17.182;-96.766;2023-07-13T12:02:35;13.30;;;6.27;;
44272;SDS011;29964;17.182;-96.766;2023-07-13T12:05:03;18.47;;;5.70;;
44272;SDS011;29964;17.182;-96.766;2023-07-13T12:07:31;13.17;;;7.20;;
44272;SDS011;29964;17.182;-96.766;2023-07-13T12:10:40;8.57;;;5.00;;
44272;SDS011;29964;17.182;-96.766;2023-07-13T12:12:51;12.50;;;4.67;;
44272;SDS011;29964;17.182;-96.766;2023-07-13T12:15:19;9.20;;;5.10;;
44272;SDS011;29964;17.182;-96.766;2023-07-13T12:17:47;7.67;;;4.67;;
44272;SDS011;29964;17.182;-96.766;2023-07-13T12:20:24;9.50;;;3.97;;
44272;SDS011;29964;17.182;-96.766;2023-07-13T12:22:52;4.73;;;2.53;;
44272;SDS011;29964;17.182;-96.766;2023-07-13T12:25:19;3.80;;;2.37;;
44272;SDS011;29964;17.182;-96.766;2023-07-13T12:27:47;11.07;;;3.23;;
44272;SDS011;29964;17.182;-96.766;2023-07-13T12:33:00;17.30;;;3.90;;
44272;SDS011;29964;17.182;-96.766;2023-07-13T12:35:28;4.80;;;3.07;;
44272;SDS011;29964;17.182;-96.766;2023-07-13T12:38:00;4.13;;;2.90;;
44272;SDS011;29964;17.182;-96.766;2023-07-13T12:40:32;10.67;;;3.80;;
44272;SDS011;29964;17.182;-96.766;2023-07-13T12:43:00;4.63;;;3.40;;
44272;SDS011;29964;17.182;-96.766;2023-07-13T12:45:29;12.57;;;3.27;;
44272;SDS011;29964;17.182;-96.766;2023-07-13T12:47:57;8.23;;;4.40;;
44272;SDS011;29964;17.182;-96.766;2023-07-13T12:50:29;8.70;;;5.40;;
44272;SDS011;29964;17.182;-96.766;2023-07-13T12:52:59;6.63;;;4.47;;
44272;SDS011;29964;17.182;-96.766;2023-07-13T12:55:29;7.90;;;4.93;;
44272;SDS011;29964;17.182;-96.766;2023-07-13T12:57:59;7.07;;;5.10;;
44272;SDS011;29964;17.182;-96.766;2023-07-13T13:00:30;12.20;;;4.73;;
44272;SDS011;29964;17.182;-96.766;2023-07-13T13:03:05;9.57;;;5.77;;
44272;SDS011;29964;17.182;-96.766;2023-07-13T13:05:32;4.57;;;2.93;;
44272;SDS011;29964;17.182;-96.766;2023-07-13T13:07:59;12.60;;;4.30;;
44272;SDS011;29964;17.182;-96.766;2023-07-13T13:10:26;7.70;;;4.50;;
44272;SDS011;29964;17.182;-96.766;2023-07-13T13:12:54;7.37;;;3.73;;
44272;SDS011;29964;17.182;-96.766;2023-07-13T13:15:21;9.47;;;3.87;;
44272;SDS011;29964;17.182;-96.766;2023-07-13T13:17:49;5.17;;;3.00;;
44272;SDS011;29964;17.182;-96.766;2023-07-13T13:20:17;13.73;;;4.13;;
44272;SDS011;29964;17.182;-96.766;2023-07-13T13:22:44;6.40;;;4.17;;
44272;SDS011;29964;17.182;-96.766;2023-07-13T13:25:14;5.70;;;4.23;;
44272;SDS011;29964;17.182;-96.766;2023-07-13T13:27:41;5.70;;;3.33;;
44272;SDS011;29964;17.182;-96.766;2023-07-13T13:30:17;6.07;;;3.07;;
44272;SDS011;29964;17.182;-96.766;2023-07-13T13:32:45;9.10;;;4.17;;
44272;SDS011;29964;17.182;-96.766;2023-07-13T13:35:14;13.30;;;5.07;;
44272;SDS011;29964;17.182;-96.766;2023-07-13T13:37:41;6.07;;;3.07;;
44272;SDS011;29964;17.182;-96.766;2023-07-13T13:40:15;4.77;;;2.87;;
44272;SDS011;29964;17.182;-96.766;2023-07-13T13:42:42;5.60;;;2.97;;
44272;SDS011;29964;17.182;-96.766;2023-07-13T13:45:09;4.60;;;2.63;;
44272;SDS011;29964;17.182;-96.766;2023-07-13T13:47:37;11.73;;;3.63;;
44272;SDS011;29964;17.182;-96.766;2023-07-13T13:50:10;7.13;;;2.97;;
44272;SDS011;29964;17.182;-96.766;2023-07-13T13:55:13;4.30;;;2.50;;
44272;SDS011;29964;17.182;-96.766;2023-07-13T13:57:40;7.50;;;3.17;;
44272;SDS011;29964;17.182;-96.766;2023-07-13T14:00:08;12.47;;;3.97;;
44272;SDS011;29964;17.182;-96.766;2023-07-13T14:02:40;7.43;;;3.53;;
44272;SDS011;29964;17.182;-96.766;2023-07-13T14:05:11;10.27;;;4.97;;
44272;SDS011;29964;17.182;-96.766;2023-07-13T14:07:39;8.60;;;3.40;;
44272;SDS011;29964;17.182;-96.766;2023-07-13T14:10:15;10.40;;;3.50;;
44272;SDS011;29964;17.182;-96.766;2023-07-13T14:12:48;7.30;;;3.20;;
44272;SDS011;29964;17.182;-96.766;2023-07-13T14:15:18;9.17;;;3.30;;
44272;SDS011;29964;17.182;-96.766;2023-07-13T14:17:46;11.87;;;3.83;;
44272;SDS011;29964;17.182;-96.766;2023-07-13T14:20:15;4.90;;;3.10;;
44272;SDS011;29964;17.182;-96.766;2023-07-13T14:22:42;16.07;;;3.80;;
44272;SDS011;29964;17.182;-96.766;2023-07-13T14:25:13;11.43;;;3.63;;
44272;SDS011;29964;17.182;-96.766;2023-07-13T14:27:41;7.87;;;3.20;;
44272;SDS011;29964;17.182;-96.766;2023-07-13T14:30:18;21.90;;;3.90;;
44272;SDS011;29964;17.182;-96.766;2023-07-13T14:32:45;17.60;;;3.57;;
44272;SDS011;29964;17.182;-96.766;2023-07-13T14:35:13;21.17;;;4.27;;
44272;SDS011;29964;17.182;-96.766;2023-07-13T14:37:40;13.10;;;3.77;;
44272;SDS011;29964;17.182;-96.766;2023-07-13T14:40:22;5.47;;;2.90;;
44272;SDS011;29964;17.182;-96.766;2023-07-13T14:42:51;6.63;;;3.30;;
44272;SDS011;29964;17.182;-96.766;2023-07-13T14:45:19;9.37;;;3.10;;
44272;SDS011;29964;17.182;-96.766;2023-07-13T14:47:46;8.03;;;2.90;;
44272;SDS011;29964;17.182;-96.766;2023-07-13T14:50:18;11.43;;;2.83;;
44272;SDS011;29964;17.182;-96.766;2023-07-13T14:52:46;15.43;;;3.70;;
44272;SDS011;29964;17.182;-96.766;2023-07-13T14:55:14;18.20;;;4.53;;
44272;SDS011;29964;17.182;-96.766;2023-07-13T14:57:41;5.53;;;2.93;;
44272;SDS011;29964;17.182;-96.766;2023-07-13T15:00:18;3.60;;;2.20;;
44272;SDS011;29964;17.182;-96.766;2023-07-13T15:02:50;8.33;;;4.33;;
44272;SDS011;29964;17.182;-96.766;2023-07-13T15:05:20;8.50;;;3.47;;